Pittsfield, IL

1:09 AM CST on February 08, 2016 (GMT -0600)
Pittsfield Penstone Municipal | | Change Station
CLOSE
Current Station
Airport
Location: Pittsfield,
Elevation: 709 ft
Nearby Weather Stations

Elev 709 ft 39.64 °N, 90.78 °W | Updated 14 minutes ago

Overcast
Overcast
36 °F
Feels Like 28 °F
N
12
Wind Variable Wind from West

Today
High -- | Low -- °F
--% Chance of Precip.
Yesterday
High -- | Low -- °F
Precip. -- in
Pressure 29.80 in
Visibility 10.0 miles
Clouds Mostly Cloudy 1800 ft
Mostly Cloudy 2400 ft
Overcast 4800 ft
Windchill 28 °F
Dew Point 31 °F
Humidity 83%
Rainfall 0.00 in
Snow Depth Not available.
7:04 AM 5:31 PM
Waning Crescent, 0% visible
METAR KPPQ 080655Z AUTO 27010KT 10SM BKN018 BKN024 OVC048 02/00 A2980 RMK AO2 T00211005
Pressure 29.80 in
Visibility 10.0 miles
Clouds Mostly Cloudy 1800 ft
Mostly Cloudy 2400 ft
Overcast 4800 ft
Windchill 28 °F
Dew Point 31 °F
Humidity 83%
Rainfall 0.00 in
Snow Depth Not available.
7:04 AM 5:31 PM
Waning Crescent, 0% visible
METAR KPPQ 080655Z AUTO 27010KT 10SM BKN018 BKN024 OVC048 02/00 A2980 RMK AO2 T00211005

10-Day Weather Forecast

Almanac

Astronomy

Feb. 08, 2016 Rise Set
Actual Time
Civil Twilight
Nautical Twilight
Astronomical Twilight
Moon
Length of Visible Light
Length of Day
Tomorrow will be .
, % of the Moon is Illuminated

Today's Extremes

State Highs State Lows

Community

WunderPhotos

Upload Photos

1,891,394 photos uploaded!

WunderBlog® & News

Nearby

Air Quality

  Air Quality AQ Index Pollutant
Not available.

Snow Depth

Station Depth Elevation

Earthquake Activity

City Distance Mag. Time & Date
Minimum magnitude displayed is 2.5.

Coastal Water Temperatures

Place Temperature

Stations

Nearby Weather Stations

Station Location Temp. Windchill Dew Point Humidity Wind Precip. Elev Updated Type
                   

Watches & Warnings

There are currently no watches in effect.